sensor_id;sensor_type;location;lat;lon;timestamp;P1;durP1;ratioP1;P2;durP2;ratioP2
6809;SDS011;3443;48.812;9.112;2023-03-05T00:01:18;19.27;;;11.60;;
6809;SDS011;3443;48.812;9.112;2023-03-05T00:03:52;21.70;;;12.83;;
6809;SDS011;3443;48.812;9.112;2023-03-05T00:06:20;20.80;;;12.80;;
6809;SDS011;3443;48.812;9.112;2023-03-05T00:08:47;25.90;;;12.97;;
6809;SDS011;3443;48.812;9.112;2023-03-05T00:11:13;24.07;;;13.23;;
6809;SDS011;3443;48.812;9.112;2023-03-05T00:13:39;20.97;;;12.67;;
6809;SDS011;3443;48.812;9.112;2023-03-05T00:16:05;25.03;;;14.20;;
6809;SDS011;3443;48.812;9.112;2023-03-05T00:18:33;19.37;;;13.20;;
6809;SDS011;3443;48.812;9.112;2023-03-05T00:20:59;22.13;;;12.73;;
6809;SDS011;3443;48.812;9.112;2023-03-05T00:23:25;23.27;;;13.47;;
6809;SDS011;3443;48.812;9.112;2023-03-05T00:25:51;19.13;;;12.17;;
6809;SDS011;3443;48.812;9.112;2023-03-05T00:28:17;20.63;;;12.23;;
6809;SDS011;3443;48.812;9.112;2023-03-05T00:30:42;20.03;;;11.63;;
6809;SDS011;3443;48.812;9.112;2023-03-05T00:33:08;22.27;;;12.27;;
6809;SDS011;3443;48.812;9.112;2023-03-05T00:35:42;21.80;;;12.33;;
6809;SDS011;3443;48.812;9.112;2023-03-05T00:38:10;22.07;;;12.80;;
6809;SDS011;3443;48.812;9.112;2023-03-05T00:40:37;21.67;;;12.27;;
6809;SDS011;3443;48.812;9.112;2023-03-05T00:43:04;20.67;;;11.80;;
6809;SDS011;3443;48.812;9.112;2023-03-05T00:45:30;21.10;;;12.53;;
6809;SDS011;3443;48.812;9.112;2023-03-05T00:47:56;20.00;;;12.23;;
6809;SDS011;3443;48.812;9.112;2023-03-05T00:50:22;21.93;;;12.30;;
6809;SDS011;3443;48.812;9.112;2023-03-05T00:52:48;21.47;;;12.23;;
6809;SDS011;3443;48.812;9.112;2023-03-05T00:55:13;22.10;;;11.67;;
6809;SDS011;3443;48.812;9.112;2023-03-05T00:57:40;22.47;;;11.47;;
6809;SDS011;3443;48.812;9.112;2023-03-05T01:00:06;19.47;;;11.03;;
6809;SDS011;3443;48.812;9.112;2023-03-05T01:02:32;16.80;;;10.27;;
6809;SDS011;3443;48.812;9.112;2023-03-05T01:04:58;20.63;;;11.80;;
6809;SDS011;3443;48.812;9.112;2023-03-05T01:07:23;20.40;;;11.60;;
6809;SDS011;3443;48.812;9.112;2023-03-05T01:09:49;20.03;;;11.70;;
6809;SDS011;3443;48.812;9.112;2023-03-05T01:12:14;21.83;;;11.93;;
6809;SDS011;3443;48.812;9.112;2023-03-05T01:14:40;21.43;;;11.07;;
6809;SDS011;3443;48.812;9.112;2023-03-05T01:17:06;19.83;;;11.13;;
6809;SDS011;3443;48.812;9.112;2023-03-05T01:19:32;18.60;;;11.00;;
6809;SDS011;3443;48.812;9.112;2023-03-05T01:21:58;17.67;;;10.10;;
6809;SDS011;3443;48.812;9.112;2023-03-05T01:24:23;19.63;;;10.70;;
6809;SDS011;3443;48.812;9.112;2023-03-05T01:26:49;18.50;;;10.13;;
6809;SDS011;3443;48.812;9.112;2023-03-05T01:29:15;19.53;;;10.67;;
6809;SDS011;3443;48.812;9.112;2023-03-05T01:31:41;16.40;;;9.97;;
6809;SDS011;3443;48.812;9.112;2023-03-05T01:34:07;17.97;;;10.73;;
6809;SDS011;3443;48.812;9.112;2023-03-05T01:36:32;18.90;;;10.67;;
6809;SDS011;3443;48.812;9.112;2023-03-05T01:38:58;17.83;;;10.43;;
6809;SDS011;3443;48.812;9.112;2023-03-05T01:41:24;19.87;;;10.70;;
6809;SDS011;3443;48.812;9.112;2023-03-05T01:43:50;18.27;;;10.70;;
6809;SDS011;3443;48.812;9.112;2023-03-05T01:48:49;19.73;;;11.00;;
6809;SDS011;3443;48.812;9.112;2023-03-05T01:51:19;17.30;;;10.93;;
6809;SDS011;3443;48.812;9.112;2023-03-05T01:53:49;22.97;;;10.53;;
6809;SDS011;3443;48.812;9.112;2023-03-05T01:56:15;15.60;;;9.63;;
6809;SDS011;3443;48.812;9.112;2023-03-05T01:58:41;18.30;;;10.77;;
6809;SDS011;3443;48.812;9.112;2023-03-05T02:01:07;19.37;;;10.43;;
6809;SDS011;3443;48.812;9.112;2023-03-05T02:03:33;16.70;;;9.90;;
6809;SDS011;3443;48.812;9.112;2023-03-05T02:06:00;19.20;;;10.67;;
6809;SDS011;3443;48.812;9.112;2023-03-05T02:08:26;18.37;;;10.27;;
6809;SDS011;3443;48.812;9.112;2023-03-05T02:10:53;20.67;;;10.33;;
6809;SDS011;3443;48.812;9.112;2023-03-05T02:13:25;18.20;;;9.80;;
6809;SDS011;3443;48.812;9.112;2023-03-05T02:15:56;19.73;;;10.00;;
6809;SDS011;3443;48.812;9.112;2023-03-05T02:18:23;16.43;;;9.37;;
6809;SDS011;3443;48.812;9.112;2023-03-05T02:23:22;19.27;;;9.83;;
6809;SDS011;3443;48.812;9.112;2023-03-05T02:25:49;18.30;;;9.90;;
6809;SDS011;3443;48.812;9.112;2023-03-05T02:28:22;16.17;;;8.93;;
6809;SDS011;3443;48.812;9.112;2023-03-05T02:31:16;14.53;;;9.27;;
6809;SDS011;3443;48.812;9.112;2023-03-05T02:33:47;18.33;;;9.57;;
6809;SDS011;3443;48.812;9.112;2023-03-05T02:36:13;17.70;;;9.53;;
6809;SDS011;3443;48.812;9.112;2023-03-05T02:38:39;16.17;;;9.67;;
6809;SDS011;3443;48.812;9.112;2023-03-05T02:41:07;16.17;;;9.27;;
6809;SDS011;3443;48.812;9.112;2023-03-05T02:43:33;18.70;;;9.00;;
6809;SDS011;3443;48.812;9.112;2023-03-05T02:45:59;15.13;;;8.50;;
6809;SDS011;3443;48.812;9.112;2023-03-05T02:48:24;16.23;;;8.83;;
6809;SDS011;3443;48.812;9.112;2023-03-05T02:50:50;15.43;;;8.23;;
6809;SDS011;3443;48.812;9.112;2023-03-05T02:53:16;16.00;;;8.57;;
6809;SDS011;3443;48.812;9.112;2023-03-05T02:55:41;15.73;;;9.03;;
6809;SDS011;3443;48.812;9.112;2023-03-05T02:58:11;18.53;;;9.53;;
6809;SDS011;3443;48.812;9.112;2023-03-05T03:00:37;16.07;;;8.87;;
6809;SDS011;3443;48.812;9.112;2023-03-05T03:03:02;17.33;;;9.53;;
6809;SDS011;3443;48.812;9.112;2023-03-05T03:05:28;17.27;;;8.50;;
6809;SDS011;3443;48.812;9.112;2023-03-05T03:07:53;15.83;;;8.93;;
6809;SDS011;3443;48.812;9.112;2023-03-05T03:10:19;16.03;;;8.97;;
6809;SDS011;3443;48.812;9.112;2023-03-05T03:12:44;19.93;;;9.20;;
6809;SDS011;3443;48.812;9.112;2023-03-05T03:15:11;17.20;;;8.23;;
6809;SDS011;3443;48.812;9.112;2023-03-05T03:17:38;17.10;;;9.90;;
6809;SDS011;3443;48.812;9.112;2023-03-05T03:20:05;16.83;;;9.60;;
6809;SDS011;3443;48.812;9.112;2023-03-05T03:22:33;19.17;;;8.87;;
6809;SDS011;3443;48.812;9.112;2023-03-05T03:24:59;15.60;;;8.70;;
6809;SDS011;3443;48.812;9.112;2023-03-05T03:27:25;15.83;;;8.83;;
6809;SDS011;3443;48.812;9.112;2023-03-05T03:29:51;17.37;;;8.63;;
6809;SDS011;3443;48.812;9.112;2023-03-05T03:32:17;14.97;;;8.40;;
6809;SDS011;3443;48.812;9.112;2023-03-05T03:34:42;17.17;;;9.20;;
6809;SDS011;3443;48.812;9.112;2023-03-05T03:37:08;17.00;;;8.80;;
6809;SDS011;3443;48.812;9.112;2023-03-05T03:39:34;14.97;;;8.50;;
6809;SDS011;3443;48.812;9.112;2023-03-05T03:42:00;15.13;;;8.70;;
6809;SDS011;3443;48.812;9.112;2023-03-05T03:44:26;15.23;;;8.33;;
6809;SDS011;3443;48.812;9.112;2023-03-05T03:46:52;16.10;;;8.23;;
6809;SDS011;3443;48.812;9.112;2023-03-05T03:49:22;15.87;;;8.27;;
6809;SDS011;3443;48.812;9.112;2023-03-05T03:51:49;16.53;;;8.63;;
6809;SDS011;3443;48.812;9.112;2023-03-05T03:54:16;13.73;;;8.03;;
6809;SDS011;3443;48.812;9.112;2023-03-05T03:56:42;16.10;;;8.30;;
6809;SDS011;3443;48.812;9.112;2023-03-05T03:59:08;16.17;;;7.97;;
6809;SDS011;3443;48.812;9.112;2023-03-05T04:01:35;13.60;;;7.73;;
6809;SDS011;3443;48.812;9.112;2023-03-05T04:04:01;12.13;;;8.03;;
6809;SDS011;3443;48.812;9.112;2023-03-05T04:06:27;14.70;;;8.53;;
6809;SDS011;3443;48.812;9.112;2023-03-05T04:08:52;16.90;;;8.77;;
6809;SDS011;3443;48.812;9.112;2023-03-05T04:11:18;15.90;;;9.00;;
6809;SDS011;3443;48.812;9.112;2023-03-05T04:13:47;15.10;;;8.33;;
6809;SDS011;3443;48.812;9.112;2023-03-05T04:16:13;18.37;;;8.77;;
6809;SDS011;3443;48.812;9.112;2023-03-05T04:18:39;17.90;;;8.33;;
6809;SDS011;3443;48.812;9.112;2023-03-05T04:21:05;15.10;;;8.37;;
6809;SDS011;3443;48.812;9.112;2023-03-05T04:23:31;14.50;;;8.40;;
6809;SDS011;3443;48.812;9.112;2023-03-05T04:25:57;18.13;;;8.67;;
6809;SDS011;3443;48.812;9.112;2023-03-05T04:28:23;18.00;;;8.83;;
6809;SDS011;3443;48.812;9.112;2023-03-05T04:30:49;18.47;;;8.43;;
6809;SDS011;3443;48.812;9.112;2023-03-05T04:33:14;16.33;;;8.43;;
6809;SDS011;3443;48.812;9.112;2023-03-05T04:35:40;18.50;;;9.10;;
6809;SDS011;3443;48.812;9.112;2023-03-05T04:38:06;14.77;;;8.40;;
6809;SDS011;3443;48.812;9.112;2023-03-05T04:40:32;13.30;;;7.50;;
6809;SDS011;3443;48.812;9.112;2023-03-05T04:42:58;17.03;;;8.47;;
6809;SDS011;3443;48.812;9.112;2023-03-05T04:45:23;16.63;;;9.23;;
6809;SDS011;3443;48.812;9.112;2023-03-05T04:47:49;15.77;;;8.77;;
6809;SDS011;3443;48.812;9.112;2023-03-05T04:50:15;16.10;;;8.90;;
6809;SDS011;3443;48.812;9.112;2023-03-05T04:52:41;16.97;;;8.70;;
6809;SDS011;3443;48.812;9.112;2023-03-05T04:55:08;15.97;;;9.03;;
6809;SDS011;3443;48.812;9.112;2023-03-05T04:57:35;15.70;;;8.87;;
6809;SDS011;3443;48.812;9.112;2023-03-05T05:00:00;16.10;;;8.80;;
6809;SDS011;3443;48.812;9.112;2023-03-05T05:02:30;17.37;;;9.20;;
6809;SDS011;3443;48.812;9.112;2023-03-05T05:04:56;16.57;;;8.93;;
6809;SDS011;3443;48.812;9.112;2023-03-05T05:07:22;21.53;;;9.63;;
6809;SDS011;3443;48.812;9.112;2023-03-05T05:09:47;18.20;;;9.50;;
6809;SDS011;3443;48.812;9.112;2023-03-05T05:12:13;16.20;;;9.13;;
6809;SDS011;3443;48.812;9.112;2023-03-05T05:14:39;20.20;;;10.20;;
6809;SDS011;3443;48.812;9.112;2023-03-05T05:17:04;15.40;;;8.87;;
6809;SDS011;3443;48.812;9.112;2023-03-05T05:19:31;14.77;;;8.73;;
6809;SDS011;3443;48.812;9.112;2023-03-05T05:21:57;17.13;;;8.97;;
6809;SDS011;3443;48.812;9.112;2023-03-05T05:24:22;16.43;;;9.13;;
6809;SDS011;3443;48.812;9.112;2023-03-05T05:26:48;15.07;;;9.30;;
6809;SDS011;3443;48.812;9.112;2023-03-05T05:29:13;20.47;;;11.20;;
6809;SDS011;3443;48.812;9.112;2023-03-05T05:31:39;19.87;;;10.33;;
6809;SDS011;3443;48.812;9.112;2023-03-05T05:34:05;19.77;;;10.43;;
6809;SDS011;3443;48.812;9.112;2023-03-05T05:36:30;14.27;;;8.80;;
6809;SDS011;3443;48.812;9.112;2023-03-05T05:38:56;15.47;;;9.37;;
6809;SDS011;3443;48.812;9.112;2023-03-05T05:41:21;15.80;;;9.23;;
6809;SDS011;3443;48.812;9.112;2023-03-05T05:43:47;18.20;;;9.70;;
6809;SDS011;3443;48.812;9.112;2023-03-05T05:46:14;16.87;;;9.13;;
6809;SDS011;3443;48.812;9.112;2023-03-05T05:48:41;18.73;;;10.07;;
6809;SDS011;3443;48.812;9.112;2023-03-05T05:51:08;18.13;;;10.50;;
6809;SDS011;3443;48.812;9.112;2023-03-05T05:53:35;21.23;;;10.60;;
6809;SDS011;3443;48.812;9.112;2023-03-05T05:56:05;22.43;;;12.33;;
6809;SDS011;3443;48.812;9.112;2023-03-05T05:58:33;21.63;;;11.70;;
6809;SDS011;3443;48.812;9.112;2023-03-05T06:00:59;20.90;;;9.90;;
6809;SDS011;3443;48.812;9.112;2023-03-05T06:03:25;20.60;;;10.90;;
6809;SDS011;3443;48.812;9.112;2023-03-05T06:05:51;19.90;;;9.37;;
6809;SDS011;3443;48.812;9.112;2023-03-05T06:08:16;17.80;;;10.00;;
6809;SDS011;3443;48.812;9.112;2023-03-05T06:10:43;19.00;;;10.10;;
6809;SDS011;3443;48.812;9.112;2023-03-05T06:13:08;19.20;;;10.03;;
6809;SDS011;3443;48.812;9.112;2023-03-05T06:15:34;19.57;;;11.00;;
6809;SDS011;3443;48.812;9.112;2023-03-05T06:18:00;15.87;;;9.67;;
6809;SDS011;3443;48.812;9.112;2023-03-05T06:20:25;21.87;;;11.23;;
6809;SDS011;3443;48.812;9.112;2023-03-05T06:22:52;19.13;;;10.87;;
6809;SDS011;3443;48.812;9.112;2023-03-05T06:25:18;18.87;;;10.53;;
6809;SDS011;3443;48.812;9.112;2023-03-05T06:27:43;19.37;;;9.70;;
6809;SDS011;3443;48.812;9.112;2023-03-05T06:30:09;19.03;;;10.93;;
6809;SDS011;3443;48.812;9.112;2023-03-05T06:32:36;20.23;;;11.53;;
6809;SDS011;3443;48.812;9.112;2023-03-05T06:35:01;19.13;;;11.10;;
6809;SDS011;3443;48.812;9.112;2023-03-05T06:37:27;21.00;;;11.70;;
6809;SDS011;3443;48.812;9.112;2023-03-05T06:39:52;22.70;;;11.27;;
6809;SDS011;3443;48.812;9.112;2023-03-05T06:42:18;28.00;;;12.83;;
6809;SDS011;3443;48.812;9.112;2023-03-05T06:44:43;20.70;;;11.83;;
6809;SDS011;3443;48.812;9.112;2023-03-05T06:47:09;26.00;;;13.93;;
6809;SDS011;3443;48.812;9.112;2023-03-05T06:49:35;23.90;;;13.93;;
6809;SDS011;3443;48.812;9.112;2023-03-05T06:52:02;23.93;;;13.63;;
6809;SDS011;3443;48.812;9.112;2023-03-05T06:54:28;22.17;;;12.93;;
6809;SDS011;3443;48.812;9.112;2023-03-05T06:56:54;23.10;;;12.63;;
6809;SDS011;3443;48.812;9.112;2023-03-05T06:59:19;23.10;;;12.87;;
6809;SDS011;3443;48.812;9.112;2023-03-05T07:01:46;23.70;;;12.27;;
6809;SDS011;3443;48.812;9.112;2023-03-05T07:04:12;22.73;;;12.37;;
6809;SDS011;3443;48.812;9.112;2023-03-05T07:06:39;23.23;;;12.47;;
6809;SDS011;3443;48.812;9.112;2023-03-05T07:09:09;21.93;;;11.53;;
6809;SDS011;3443;48.812;9.112;2023-03-05T07:11:39;20.00;;;11.57;;
6809;SDS011;3443;48.812;9.112;2023-03-05T07:14:05;24.77;;;12.43;;
6809;SDS011;3443;48.812;9.112;2023-03-05T07:16:31;21.90;;;11.23;;
6809;SDS011;3443;48.812;9.112;2023-03-05T07:18:58;20.20;;;11.20;;
6809;SDS011;3443;48.812;9.112;2023-03-05T07:21:27;23.73;;;10.67;;
6809;SDS011;3443;48.812;9.112;2023-03-05T07:23:56;19.77;;;10.13;;
6809;SDS011;3443;48.812;9.112;2023-03-05T07:26:23;21.57;;;11.30;;
6809;SDS011;3443;48.812;9.112;2023-03-05T07:28:49;17.90;;;10.47;;
6809;SDS011;3443;48.812;9.112;2023-03-05T07:31:16;20.93;;;11.20;;
6809;SDS011;3443;48.812;9.112;2023-03-05T07:33:46;19.43;;;11.27;;
6809;SDS011;3443;48.812;9.112;2023-03-05T07:36:13;25.00;;;11.30;;
6809;SDS011;3443;48.812;9.112;2023-03-05T07:38:39;27.40;;;10.73;;
6809;SDS011;3443;48.812;9.112;2023-03-05T07:41:06;21.97;;;11.17;;
6809;SDS011;3443;48.812;9.112;2023-03-05T07:43:36;21.40;;;11.50;;
6809;SDS011;3443;48.812;9.112;2023-03-05T07:46:05;19.77;;;10.67;;
6809;SDS011;3443;48.812;9.112;2023-03-05T07:48:32;18.80;;;10.57;;
6809;SDS011;3443;48.812;9.112;2023-03-05T07:51:05;19.10;;;10.80;;
6809;SDS011;3443;48.812;9.112;2023-03-05T07:53:32;18.80;;;10.13;;
6809;SDS011;3443;48.812;9.112;2023-03-05T07:55:58;20.27;;;10.70;;
6809;SDS011;3443;48.812;9.112;2023-03-05T07:58:24;22.33;;;10.13;;
6809;SDS011;3443;48.812;9.112;2023-03-05T08:00:50;17.50;;;10.53;;
6809;SDS011;3443;48.812;9.112;2023-03-05T08:03:16;22.77;;;10.37;;
6809;SDS011;3443;48.812;9.112;2023-03-05T08:05:41;18.47;;;11.47;;
6809;SDS011;3443;48.812;9.112;2023-03-05T08:08:07;18.03;;;11.37;;
6809;SDS011;3443;48.812;9.112;2023-03-05T08:10:34;22.47;;;11.60;;
6809;SDS011;3443;48.812;9.112;2023-03-05T08:13:00;20.50;;;10.97;;
6809;SDS011;3443;48.812;9.112;2023-03-05T08:15:27;24.47;;;12.40;;
6809;SDS011;3443;48.812;9.112;2023-03-05T08:17:53;22.03;;;11.57;;
6809;SDS011;3443;48.812;9.112;2023-03-05T08:20:19;21.60;;;11.10;;
6809;SDS011;3443;48.812;9.112;2023-03-05T08:22:45;18.43;;;10.53;;
6809;SDS011;3443;48.812;9.112;2023-03-05T08:25:10;20.87;;;11.27;;
6809;SDS011;3443;48.812;9.112;2023-03-05T08:27:37;17.57;;;9.43;;
6809;SDS011;3443;48.812;9.112;2023-03-05T08:30:07;20.20;;;10.17;;
6809;SDS011;3443;48.812;9.112;2023-03-05T08:32:37;16.53;;;10.20;;
6809;SDS011;3443;48.812;9.112;2023-03-05T08:35:03;21.80;;;11.27;;
6809;SDS011;3443;48.812;9.112;2023-03-05T08:37:30;20.00;;;10.50;;
6809;SDS011;3443;48.812;9.112;2023-03-05T08:39:56;22.87;;;10.80;;
6809;SDS011;3443;48.812;9.112;2023-03-05T08:42:22;18.60;;;10.37;;
6809;SDS011;3443;48.812;9.112;2023-03-05T08:44:48;18.73;;;10.80;;
6809;SDS011;3443;48.812;9.112;2023-03-05T08:47:14;19.27;;;10.03;;
6809;SDS011;3443;48.812;9.112;2023-03-05T08:49:40;16.63;;;10.13;;
6809;SDS011;3443;48.812;9.112;2023-03-05T08:52:05;18.10;;;10.20;;
6809;SDS011;3443;48.812;9.112;2023-03-05T08:54:32;22.93;;;11.13;;
6809;SDS011;3443;48.812;9.112;2023-03-05T08:56:58;17.40;;;9.87;;
6809;SDS011;3443;48.812;9.112;2023-03-05T08:59:24;19.80;;;10.40;;
6809;SDS011;3443;48.812;9.112;2023-03-05T09:01:49;18.03;;;10.17;;
6809;SDS011;3443;48.812;9.112;2023-03-05T09:04:15;18.97;;;10.40;;
6809;SDS011;3443;48.812;9.112;2023-03-05T09:06:40;18.97;;;10.57;;
6809;SDS011;3443;48.812;9.112;2023-03-05T09:09:06;22.77;;;10.83;;
6809;SDS011;3443;48.812;9.112;2023-03-05T09:11:33;20.10;;;11.33;;
6809;SDS011;3443;48.812;9.112;2023-03-05T09:14:03;16.40;;;10.03;;
6809;SDS011;3443;48.812;9.112;2023-03-05T09:16:30;16.53;;;9.87;;
6809;SDS011;3443;48.812;9.112;2023-03-05T09:18:55;20.10;;;10.65;;
6809;SDS011;3443;48.812;9.112;2023-03-05T09:21:22;19.10;;;9.80;;
6809;SDS011;3443;48.812;9.112;2023-03-05T09:23:47;18.33;;;9.63;;
6809;SDS011;3443;48.812;9.112;2023-03-05T09:26:13;20.73;;;10.68;;
6809;SDS011;3443;48.812;9.112;2023-03-05T09:28:40;16.55;;;9.55;;
6809;SDS011;3443;48.812;9.112;2023-03-05T09:31:07;16.77;;;9.38;;
6809;SDS011;3443;48.812;9.112;2023-03-05T09:33:33;16.58;;;9.27;;
6809;SDS011;3443;48.812;9.112;2023-03-05T09:36:00;21.65;;;10.18;;
6809;SDS011;3443;48.812;9.112;2023-03-05T09:38:27;18.67;;;10.10;;
6809;SDS011;3443;48.812;9.112;2023-03-05T09:46:50;18.13;;;10.40;;
6809;SDS011;3443;48.812;9.112;2023-03-05T09:49:32;18.27;;;9.97;;
6809;SDS011;3443;48.812;9.112;2023-03-05T09:52:46;19.00;;;9.93;;
6809;SDS011;3443;48.812;9.112;2023-03-05T09:55:34;16.57;;;10.37;;
6809;SDS011;3443;48.812;9.112;2023-03-05T09:58:14;18.47;;;10.63;;
6809;SDS011;3443;48.812;9.112;2023-03-05T10:00:46;21.37;;;11.03;;
6809;SDS011;3443;48.812;9.112;2023-03-05T10:03:21;19.47;;;9.87;;
6809;SDS011;3443;48.812;9.112;2023-03-05T10:13:58;18.15;;;10.07;;
6809;SDS011;3443;48.812;9.112;2023-03-05T10:22:18;18.83;;;10.40;;
6809;SDS011;3443;48.812;9.112;2023-03-05T10:25:09;15.60;;;9.43;;
6809;SDS011;3443;48.812;9.112;2023-03-05T10:27:47;21.47;;;10.73;;
6809;SDS011;3443;48.812;9.112;2023-03-05T10:40:55;20.10;;;10.63;;
6809;SDS011;3443;48.812;9.112;2023-03-05T10:45:53;20.60;;;10.53;;
6809;SDS011;3443;48.812;9.112;2023-03-05T10:53:43;17.13;;;9.98;;
6809;SDS011;3443;48.812;9.112;2023-03-05T10:56:09;20.30;;;11.30;;
6809;SDS011;3443;48.812;9.112;2023-03-05T10:58:36;18.20;;;10.70;;
6809;SDS011;3443;48.812;9.112;2023-03-05T11:01:18;21.13;;;10.53;;
6809;SDS011;3443;48.812;9.112;2023-03-05T11:11:40;19.27;;;11.30;;
6809;SDS011;3443;48.812;9.112;2023-03-05T11:14:08;19.87;;;11.00;;
6809;SDS011;3443;48.812;9.112;2023-03-05T11:16:55;25.55;;;13.45;;
6809;SDS011;3443;48.812;9.112;2023-03-05T11:19:30;23.30;;;12.03;;
6809;SDS011;3443;48.812;9.112;2023-03-05T11:24:43;23.10;;;11.97;;
6809;SDS011;3443;48.812;9.112;2023-03-05T11:27:22;20.70;;;11.83;;
6809;SDS011;3443;48.812;9.112;2023-03-05T11:30:18;21.53;;;12.23;;
6809;SDS011;3443;48.812;9.112;2023-03-05T11:32:45;22.83;;;12.80;;
6809;SDS011;3443;48.812;9.112;2023-03-05T11:35:31;21.10;;;12.43;;
6809;SDS011;3443;48.812;9.112;2023-03-05T11:37:59;22.00;;;12.20;;
6809;SDS011;3443;48.812;9.112;2023-03-05T11:40:26;25.17;;;12.50;;
6809;SDS011;3443;48.812;9.112;2023-03-05T11:42:56;24.17;;;13.23;;
6809;SDS011;3443;48.812;9.112;2023-03-05T11:45:24;21.00;;;11.93;;
6809;SDS011;3443;48.812;9.112;2023-03-05T11:47:55;24.50;;;12.80;;
6809;SDS011;3443;48.812;9.112;2023-03-05T11:50:41;21.17;;;11.05;;
6809;SDS011;3443;48.812;9.112;2023-03-05T11:53:13;21.43;;;11.50;;
6809;SDS011;3443;48.812;9.112;2023-03-05T11:58:39;18.55;;;9.40;;
6809;SDS011;3443;48.812;9.112;2023-03-05T12:01:13;17.17;;;9.75;;
6809;SDS011;3443;48.812;9.112;2023-03-05T12:03:47;16.63;;;9.83;;
6809;SDS011;3443;48.812;9.112;2023-03-05T12:15:01;17.17;;;8.27;;
6809;SDS011;3443;48.812;9.112;2023-03-05T12:17:34;15.77;;;9.15;;
6809;SDS011;3443;48.812;9.112;2023-03-05T12:20:12;15.52;;;8.40;;
6809;SDS011;3443;48.812;9.112;2023-03-05T12:22:39;15.60;;;9.23;;
6809;SDS011;3443;48.812;9.112;2023-03-05T12:25:27;19.17;;;9.87;;
6809;SDS011;3443;48.812;9.112;2023-03-05T12:27:58;18.20;;;10.50;;
6809;SDS011;3443;48.812;9.112;2023-03-05T12:33:00;19.20;;;9.30;;
6809;SDS011;3443;48.812;9.112;2023-03-05T12:35:27;17.20;;;9.73;;
6809;SDS011;3443;48.812;9.112;2023-03-05T12:45:26;17.08;;;9.52;;
6809;SDS011;3443;48.812;9.112;2023-03-05T12:52:50;16.17;;;9.23;;
6809;SDS011;3443;48.812;9.112;2023-03-05T13:00:44;16.88;;;9.65;;
6809;SDS011;3443;48.812;9.112;2023-03-05T13:03:17;16.53;;;9.77;;
6809;SDS011;3443;48.812;9.112;2023-03-05T13:05:49;13.40;;;9.10;;
6809;SDS011;3443;48.812;9.112;2023-03-05T13:08:23;18.90;;;9.82;;
6809;SDS011;3443;48.812;9.112;2023-03-05T13:13:26;13.27;;;8.85;;
6809;SDS011;3443;48.812;9.112;2023-03-05T13:15:55;15.05;;;8.60;;
6809;SDS011;3443;48.812;9.112;2023-03-05T13:18:24;13.18;;;8.93;;
6809;SDS011;3443;48.812;9.112;2023-03-05T13:20:59;14.07;;;7.93;;
6809;SDS011;3443;48.812;9.112;2023-03-05T13:23:26;14.68;;;9.07;;
6809;SDS011;3443;48.812;9.112;2023-03-05T13:26:07;14.47;;;8.53;;
6809;SDS011;3443;48.812;9.112;2023-03-05T13:29:27;16.13;;;9.07;;
6809;SDS011;3443;48.812;9.112;2023-03-05T13:31:35;15.10;;;8.35;;
6809;SDS011;3443;48.812;9.112;2023-03-05T13:36:52;16.13;;;9.10;;
6809;SDS011;3443;48.812;9.112;2023-03-05T13:39:32;17.43;;;8.83;;
6809;SDS011;3443;48.812;9.112;2023-03-05T13:42:03;14.17;;;8.67;;
6809;SDS011;3443;48.812;9.112;2023-03-05T13:44:31;15.70;;;8.50;;
6809;SDS011;3443;48.812;9.112;2023-03-05T13:47:17;17.27;;;8.73;;
6809;SDS011;3443;48.812;9.112;2023-03-05T13:49:44;14.13;;;8.63;;
6809;SDS011;3443;48.812;9.112;2023-03-05T13:52:11;15.33;;;8.70;;
6809;SDS011;3443;48.812;9.112;2023-03-05T13:54:46;14.60;;;9.30;;
6809;SDS011;3443;48.812;9.112;2023-03-05T13:57:31;15.63;;;8.70;;
6809;SDS011;3443;48.812;9.112;2023-03-05T13:59:59;16.20;;;9.07;;
6809;SDS011;3443;48.812;9.112;2023-03-05T14:02:24;17.77;;;9.30;;
6809;SDS011;3443;48.812;9.112;2023-03-05T14:04:53;19.63;;;9.07;;
6809;SDS011;3443;48.812;9.112;2023-03-05T14:09:45;15.63;;;9.10;;
6809;SDS011;3443;48.812;9.112;2023-03-05T14:12:29;19.37;;;9.77;;
6809;SDS011;3443;48.812;9.112;2023-03-05T14:15:03;17.00;;;9.30;;
6809;SDS011;3443;48.812;9.112;2023-03-05T14:17:43;19.77;;;9.50;;
6809;SDS011;3443;48.812;9.112;2023-03-05T14:22:38;16.37;;;8.40;;
6809;SDS011;3443;48.812;9.112;2023-03-05T14:25:23;14.00;;;8.57;;
6809;SDS011;3443;48.812;9.112;2023-03-05T14:27:57;16.52;;;8.82;;
6809;SDS011;3443;48.812;9.112;2023-03-05T14:30:24;18.37;;;9.20;;
6809;SDS011;3443;48.812;9.112;2023-03-05T14:32:50;14.90;;;9.23;;
6809;SDS011;3443;48.812;9.112;2023-03-05T14:35:19;19.55;;;10.05;;
6809;SDS011;3443;48.812;9.112;2023-03-05T14:37:47;18.43;;;10.00;;
6809;SDS011;3443;48.812;9.112;2023-03-05T14:40:22;18.67;;;11.10;;
6809;SDS011;3443;48.812;9.112;2023-03-05T14:45:34;22.93;;;10.80;;
6809;SDS011;3443;48.812;9.112;2023-03-05T14:48:02;21.07;;;11.37;;
6809;SDS011;3443;48.812;9.112;2023-03-05T14:50:34;22.92;;;10.85;;
6809;SDS011;3443;48.812;9.112;2023-03-05T14:53:16;21.10;;;11.10;;
6809;SDS011;3443;48.812;9.112;2023-03-05T14:55:49;20.73;;;10.93;;
6809;SDS011;3443;48.812;9.112;2023-03-05T14:58:20;22.10;;;11.37;;
6809;SDS011;3443;48.812;9.112;2023-03-05T15:00:50;22.17;;;11.33;;
6809;SDS011;3443;48.812;9.112;2023-03-05T15:03:16;20.73;;;11.37;;
6809;SDS011;3443;48.812;9.112;2023-03-05T15:05:43;19.37;;;11.37;;
6809;SDS011;3443;48.812;9.112;2023-03-05T15:08:22;22.20;;;11.93;;
6809;SDS011;3443;48.812;9.112;2023-03-05T15:10:53;20.48;;;11.18;;
6809;SDS011;3443;48.812;9.112;2023-03-05T15:13:19;20.67;;;11.38;;
6809;SDS011;3443;48.812;9.112;2023-03-05T15:15:45;22.33;;;11.13;;
6809;SDS011;3443;48.812;9.112;2023-03-05T15:18:13;21.33;;;10.93;;
6809;SDS011;3443;48.812;9.112;2023-03-05T15:20:40;21.20;;;11.57;;
6809;SDS011;3443;48.812;9.112;2023-03-05T15:23:06;21.03;;;11.20;;
6809;SDS011;3443;48.812;9.112;2023-03-05T15:25:33;21.50;;;11.43;;
6809;SDS011;3443;48.812;9.112;2023-03-05T15:27:59;21.17;;;10.50;;
6809;SDS011;3443;48.812;9.112;2023-03-05T15:30:34;18.50;;;9.60;;
6809;SDS011;3443;48.812;9.112;2023-03-05T15:33:06;19.03;;;11.27;;
6809;SDS011;3443;48.812;9.112;2023-03-05T15:35:34;21.87;;;11.47;;
6809;SDS011;3443;48.812;9.112;2023-03-05T15:38:00;25.50;;;11.83;;
6809;SDS011;3443;48.812;9.112;2023-03-05T15:40:26;22.13;;;11.70;;
6809;SDS011;3443;48.812;9.112;2023-03-05T15:42:52;22.03;;;11.40;;
6809;SDS011;3443;48.812;9.112;2023-03-05T15:45:19;24.60;;;12.50;;
6809;SDS011;3443;48.812;9.112;2023-03-05T15:47:47;23.83;;;12.20;;
6809;SDS011;3443;48.812;9.112;2023-03-05T15:50:17;19.40;;;11.20;;
6809;SDS011;3443;48.812;9.112;2023-03-05T15:52:43;22.00;;;11.40;;
6809;SDS011;3443;48.812;9.112;2023-03-05T15:55:09;22.37;;;11.57;;
6809;SDS011;3443;48.812;9.112;2023-03-05T15:57:36;20.67;;;11.30;;
6809;SDS011;3443;48.812;9.112;2023-03-05T16:00:06;23.60;;;11.97;;
6809;SDS011;3443;48.812;9.112;2023-03-05T16:02:32;19.83;;;10.93;;
6809;SDS011;3443;48.812;9.112;2023-03-05T16:04:58;18.43;;;10.53;;
6809;SDS011;3443;48.812;9.112;2023-03-05T16:07:23;18.27;;;10.20;;
6809;SDS011;3443;48.812;9.112;2023-03-05T16:09:49;17.87;;;10.17;;
6809;SDS011;3443;48.812;9.112;2023-03-05T16:12:17;18.20;;;9.70;;
6809;SDS011;3443;48.812;9.112;2023-03-05T16:14:48;16.63;;;9.80;;
6809;SDS011;3443;48.812;9.112;2023-03-05T16:17:14;16.17;;;9.40;;
6809;SDS011;3443;48.812;9.112;2023-03-05T16:19:42;17.53;;;10.30;;
6809;SDS011;3443;48.812;9.112;2023-03-05T16:22:10;14.33;;;9.47;;
6809;SDS011;3443;48.812;9.112;2023-03-05T16:24:36;17.87;;;9.77;;
6809;SDS011;3443;48.812;9.112;2023-03-05T16:27:02;16.17;;;10.03;;
6809;SDS011;3443;48.812;9.112;2023-03-05T16:29:28;15.70;;;8.93;;
6809;SDS011;3443;48.812;9.112;2023-03-05T16:31:56;16.73;;;9.80;;
6809;SDS011;3443;48.812;9.112;2023-03-05T16:34:22;12.73;;;8.83;;
6809;SDS011;3443;48.812;9.112;2023-03-05T16:36:50;14.80;;;9.27;;
6809;SDS011;3443;48.812;9.112;2023-03-05T16:39:17;17.43;;;9.57;;